Riviere-Au-Tonnerre, Canada
Current Conditions -  °F | °C
As of 5:00 AM on Thursday 23 Oct 2014 (Local Time) from CYGV Reporting Station
Clear Clear  
Wind Chill: 27°   Ceiling: Unl
Heat Index: 27°   Visibility: 9mi
Dew Point: 27°   Wind: 2mph
Humidity: 100%   Direction: NA
Pressure: 30.4"   Gusts: NA
Location:  50.27°N, 64.77°W
Report Text: CYGV 230900Z AUTO VRB02KT 9SM CLR M03/M03 A3040 RMK SLP297
Loading
Personal Weather Stations






























Interactive Weather Map
Tropical Storm Tracking
New forecast layout! Learn more

10-Day Weather Forecast

Advertisements
Track Severe Weather on mobile